Time;durP1;ratioP1;P1;durP2;ratioP2;P2;SDS_P1;SDS_P2;PMS_P1;PMS_P2;Temp;Humidity;BMP_temperature;BMP_pressure;BME280_temperature;BME280_humidity;BME280_pressure;Samples;Min_cycle;Max_cycle;Signal;HPM_P1;HPM_P2
2022/01/10 05:02:10;;;;;;;25.17;14.32;;;0.20;99.90;;;;;;5239884;22;90956;-76
2022/01/10 05:04:35;;;;;;;24.50;14.98;;;0.10;99.90;;;;;;4997295;28;89155;-76
2022/01/10 05:07:01;;;;;;;28.27;15.35;;;0.10;99.90;;;;;;4997651;28;89737;-76
2022/01/10 05:09:27;;;;;;;25.27;15.43;;;0.10;99.90;;;;;;4979574;28;91559;-76
2022/01/10 05:11:52;;;;;;;26.08;16.33;;;0.10;99.90;;;;;;4997221;28;89595;-75
2022/01/10 05:14:18;;;;;;;28.15;17.52;;;0.20;99.90;;;;;;4995566;28;90156;-75
2022/01/10 05:16:44;;;;;;;28.73;16.48;;;0.30;99.90;;;;;;5017954;22;91835;-79
2022/01/10 05:19:10;;;;;;;31.58;17.80;;;0.40;99.90;;;;;;4998477;28;90424;-79
2022/01/10 05:21:36;;;;;;;37.15;18.33;;;0.40;99.90;;;;;;4998800;28;90072;-79
2022/01/10 05:24:01;;;;;;;35.55;18.23;;;0.50;99.90;;;;;;4997111;28;89297;-79
2022/01/10 05:26:27;;;;;;;33.63;18.80;;;0.60;99.90;;;;;;4998436;28;89397;-79
2022/01/10 05:28:55;;;;;;;29.02;18.13;;;0.60;99.90;;;;;;4996372;28;92817;-79
2022/01/10 05:31:20;;;;;;;28.25;17.85;;;0.70;99.90;;;;;;4997574;28;92056;-79
2022/01/10 05:33:47;;;;;;;27.67;16.63;;;0.70;99.90;;;;;;4997911;28;89189;-79
2022/01/10 05:36:12;;;;;;;28.13;16.15;;;0.80;99.90;;;;;;4995890;28;92830;-79
2022/01/10 05:38:38;;;;;;;31.80;17.55;;;0.80;99.90;;;;;;4997661;28;90170;-78
2022/01/10 05:41:03;;;;;;;31.67;17.48;;;0.90;99.90;;;;;;4997699;28;89439;-79
2022/01/10 05:43:29;;;;;;;31.77;16.85;;;1.00;99.90;;;;;;5005740;28;89568;-79
2022/01/10 05:45:55;;;;;;;28.58;17.05;;;1.10;99.90;;;;;;5017953;28;90220;-79
2022/01/10 05:48:25;;;;;;;30.27;16.30;;;1.20;99.90;;;;;;5017957;28;90479;-79
2022/01/10 05:50:52;;;;;;;28.60;16.55;;;1.30;99.90;;;;;;5018249;28;89256;-79
2022/01/10 05:53:18;;;;;;;37.28;19.10;;;1.40;99.90;;;;;;5018566;28;89337;-79
2022/01/10 05:55:44;;;;;;;28.88;17.52;;;1.40;99.90;;;;;;5018207;28;90354;-79
2022/01/10 05:58:10;;;;;;;33.97;19.20;;;1.50;99.90;;;;;;5018685;28;89159;-81
2022/01/10 06:00:36;;;;;;;29.15;17.80;;;1.40;99.90;;;;;;5017707;28;91792;-80
2022/01/10 06:03:02;;;;;;;27.98;16.58;;;1.40;99.90;;;;;;5016980;28;90265;-80
2022/01/10 06:05:31;;;;;;;28.42;16.42;;;1.40;99.90;;;;;;5019220;28;90689;-80
2022/01/10 06:07:58;;;;;;;32.67;18.75;;;1.40;99.90;;;;;;5017489;28;91770;-80
2022/01/10 06:10:24;;;;;;;30.58;17.90;;;1.40;99.90;;;;;;5020564;28;89512;-80
2022/01/10 06:12:50;;;;;;;33.38;17.92;;;1.50;99.90;;;;;;5020334;28;89279;-79
2022/01/10 06:15:15;;;;;;;32.63;18.27;;;1.50;99.90;;;;;;5021431;28;89871;-80
2022/01/10 06:17:41;;;;;;;30.50;17.85;;;1.50;99.90;;;;;;5021597;28;90396;-80
2022/01/10 06:20:08;;;;;;;34.05;19.10;;;1.50;99.90;;;;;;5021551;28;90983;-79
2022/01/10 06:22:33;;;;;;;31.58;18.95;;;1.50;99.90;;;;;;5019897;28;89338;-80
2022/01/10 06:24:59;;;;;;;34.83;18.48;;;1.50;99.90;;;;;;5022119;28;89323;-80
2022/01/10 06:27:25;;;;;;;30.38;17.65;;;1.50;99.90;;;;;;5015968;28;94023;-80
2022/01/10 06:29:51;;;;;;;27.83;17.63;;;1.50;99.90;;;;;;5017665;28;89766;-80
2022/01/10 06:32:17;;;;;;;29.35;17.42;;;1.60;99.90;;;;;;4987626;28;89356;-80
2022/01/10 06:34:42;;;;;;;31.00;18.17;;;1.60;99.90;;;;;;4989156;28;91936;-80
2022/01/10 06:37:08;;;;;;;32.75;17.23;;;1.60;99.90;;;;;;4988177;28;91682;-79
2022/01/10 06:39:33;;;;;;;26.95;17.60;;;1.70;99.90;;;;;;4990354;28;92866;-80
2022/01/10 06:41:59;;;;;;;29.60;17.67;;;1.70;99.90;;;;;;4991355;28;89290;-80
2022/01/10 06:44:25;;;;;;;31.80;17.48;;;1.60;99.90;;;;;;4994097;28;89039;-80
2022/01/10 06:46:51;;;;;;;27.42;17.98;;;1.60;99.90;;;;;;4985725;28;92987;-80
2022/01/10 06:49:17;;;;;;;29.70;17.17;;;1.60;99.90;;;;;;4982031;28;90432;-79
2022/01/10 06:51:42;;;;;;;32.63;17.35;;;1.60;99.90;;;;;;4982350;28;90303;-79
2022/01/10 06:54:08;;;;;;;28.10;16.75;;;1.60;99.90;;;;;;4980567;28;92085;-81
2022/01/10 06:56:33;;;;;;;31.02;17.38;;;1.60;99.90;;;;;;4981063;28;90117;-80
2022/01/10 06:58:59;;;;;;;33.60;18.40;;;1.60;99.90;;;;;;4988225;28;91572;-78
2022/01/10 07:01:25;;;;;;;28.60;16.95;;;1.60;99.90;;;;;;4996697;28;89307;-78
2022/01/10 07:03:53;;;;;;;27.02;16.85;;;1.60;99.90;;;;;;4999271;28;91681;-82
2022/01/10 07:06:20;;;;;;;24.45;16.20;;;1.70;99.90;;;;;;4999024;28;92056;-79
2022/01/10 07:08:45;;;;;;;29.73;16.40;;;1.60;99.90;;;;;;5001227;28;91339;-80
2022/01/10 07:11:11;;;;;;;27.25;16.75;;;1.50;99.90;;;;;;5000945;28;89581;-79
2022/01/10 07:13:37;;;;;;;35.28;20.73;;;1.50;99.90;;;;;;4998829;28;92674;-80
2022/01/10 07:16:03;;;;;;;32.47;20.42;;;1.50;99.90;;;;;;4994422;28;93065;-80
2022/01/10 07:18:29;;;;;;;36.05;21.75;;;1.50;99.90;;;;;;4979763;28;93593;-80
2022/01/10 07:20:55;;;;;;;34.85;20.90;;;1.50;99.90;;;;;;4979352;28;89273;-80
2022/01/10 07:23:21;;;;;;;30.50;19.25;;;1.50;99.90;;;;;;4980865;28;89330;-80
2022/01/10 07:25:46;;;;;;;32.38;18.88;;;1.50;99.90;;;;;;4981366;28;90073;-80
2022/01/10 07:28:12;;;;;;;35.45;19.08;;;1.50;99.90;;;;;;4979089;28;92610;-80
2022/01/10 07:30:37;;;;;;;31.20;18.30;;;1.60;99.90;;;;;;4981045;28;89532;-80
2022/01/10 07:33:03;;;;;;;29.70;17.70;;;1.60;99.90;;;;;;4980576;28;91881;-80
2022/01/10 07:35:29;;;;;;;31.17;18.02;;;1.70;99.90;;;;;;4980760;28;92766;-81
2022/01/10 07:37:54;;;;;;;30.48;18.30;;;1.70;99.90;;;;;;4980832;28;91548;-80
2022/01/10 07:40:20;;;;;;;31.45;18.63;;;1.70;99.90;;;;;;4981373;28;90117;-80
2022/01/10 07:42:45;;;;;;;31.70;18.00;;;1.80;99.90;;;;;;4980160;28;91289;-80
2022/01/10 07:45:11;;;;;;;32.15;18.52;;;1.80;99.90;;;;;;4980252;28;91054;-81
2022/01/10 07:47:37;;;;;;;30.23;18.88;;;1.90;99.90;;;;;;4977643;28;92679;-81
2022/01/10 07:50:04;;;;;;;37.35;19.90;;;2.00;99.90;;;;;;4978492;28;89352;-81
2022/01/10 07:52:30;;;;;;;33.13;18.98;;;2.00;99.90;;;;;;4978679;28;92830;-80
2022/01/10 07:54:55;;;;;;;28.23;18.20;;;2.00;99.90;;;;;;4980247;28;90366;-80
2022/01/10 07:57:21;;;;;;;31.08;18.48;;;2.10;99.90;;;;;;4980744;28;89591;-80
2022/01/10 07:59:47;;;;;;;29.63;18.30;;;2.20;99.90;;;;;;4980096;28;89162;-80
2022/01/10 08:02:13;;;;;;;23.92;16.95;;;2.20;99.90;;;;;;4978256;28;91905;-81
2022/01/10 08:04:39;;;;;;;32.28;19.27;;;2.20;99.90;;;;;;4979883;28;91163;-80
2022/01/10 08:07:05;;;;;;;27.33;17.88;;;2.30;99.90;;;;;;4981139;28;90757;-81
2022/01/10 08:09:30;;;;;;;27.20;17.48;;;2.30;99.90;;;;;;4986426;28;89224;-79
2022/01/10 08:11:59;;;;;;;30.13;18.15;;;2.30;99.90;;;;;;4999943;28;91719;-80
2022/01/10 08:14:26;;;;;;;30.70;18.98;;;2.20;99.90;;;;;;5000343;28;90037;-81
2022/01/10 08:16:52;;;;;;;29.25;18.77;;;2.30;99.90;;;;;;5000007;28;91053;-82
2022/01/10 08:19:17;;;;;;;31.67;18.20;;;2.30;99.90;;;;;;5001724;28;89389;-80
2022/01/10 08:21:43;;;;;;;30.25;18.15;;;2.40;99.90;;;;;;5002233;28;90213;-81
2022/01/10 08:24:08;;;;;;;28.25;17.52;;;2.30;99.90;;;;;;4999392;28;91704;-79
2022/01/10 08:26:34;;;;;;;33.15;18.63;;;2.40;99.90;;;;;;4998918;28;92931;-84
2022/01/10 08:28:59;;;;;;;31.02;18.65;;;2.40;99.90;;;;;;4998688;28;90387;-79
2022/01/10 08:31:25;;;;;;;30.98;18.02;;;2.50;99.90;;;;;;4999571;28;91815;-79
2022/01/10 08:33:51;;;;;;;35.17;19.88;;;2.60;99.90;;;;;;4997164;28;89969;-78
2022/01/10 08:36:18;;;;;;;31.17;16.95;;;2.60;99.90;;;;;;4997303;28;90749;-79
2022/01/10 08:38:43;;;;;;;29.98;17.77;;;2.60;99.90;;;;;;4999541;28;89328;-79
2022/01/10 08:41:09;;;;;;;31.23;17.00;;;2.60;99.90;;;;;;5001605;28;90242;-78
2022/01/10 08:43:34;;;;;;;34.42;18.05;;;2.70;99.90;;;;;;4998938;28;91307;-80
2022/01/10 08:46:00;;;;;;;38.63;20.30;;;2.60;99.90;;;;;;4999788;28;90129;-80
2022/01/10 08:48:26;;;;;;;30.77;18.38;;;2.70;99.90;;;;;;4999273;28;89247;-79
2022/01/10 08:50:52;;;;;;;35.47;18.60;;;2.70;99.90;;;;;;4999978;28;89665;-78
2022/01/10 08:53:17;;;;;;;35.13;19.65;;;2.80;99.90;;;;;;4997344;28;94349;-85
2022/01/10 08:55:44;;;;;;;36.67;21.38;;;3.00;99.90;;;;;;4999198;28;90941;-78
2022/01/10 08:58:10;;;;;;;38.95;20.83;;;3.20;99.90;;;;;;4997739;28;89301;-79
2022/01/10 09:00:35;;;;;;;44.83;23.17;;;3.20;99.90;;;;;;4997434;28;91813;-79
2022/01/10 09:03:02;;;;;;;36.95;20.52;;;3.20;99.90;;;;;;4999476;28;90047;-78
2022/01/10 09:05:29;;;;;;;40.83;22.52;;;3.20;99.90;;;;;;4996979;28;91772;-78
2022/01/10 09:07:58;;;;;;;40.00;21.98;;;3.20;99.90;;;;;;4998443;28;89251;-79
2022/01/10 09:10:25;;;;;;;41.45;21.75;;;3.40;99.90;;;;;;4999550;28;89060;-79
2022/01/10 09:12:50;;;;;;;35.10;19.90;;;3.60;99.90;;;;;;4997815;28;93242;-79
2022/01/10 09:15:16;;;;;;;34.28;19.85;;;3.50;99.90;;;;;;4999888;28;89591;-78
2022/01/10 09:17:42;;;;;;;42.60;21.80;;;3.60;99.90;;;;;;4999435;28;90277;-78
2022/01/10 09:20:08;;;;;;;39.38;20.90;;;3.50;99.90;;;;;;5000079;28;90353;-86
2022/01/10 09:22:34;;;;;;;38.58;20.30;;;3.70;99.90;;;;;;4997804;28;92254;-77
2022/01/10 09:25:00;;;;;;;39.53;20.17;;;3.80;99.90;;;;;;4997903;28;89367;-77
2022/01/10 09:27:25;;;;;;;37.10;19.45;;;3.90;99.90;;;;;;4998142;28;89432;-77
2022/01/10 09:29:51;;;;;;;35.80;19.70;;;4.00;99.90;;;;;;4998001;28;89886;-77
2022/01/10 09:32:17;;;;;;;34.95;20.58;;;4.00;99.90;;;;;;4996998;28;90915;-77
2022/01/10 09:34:43;;;;;;;36.88;19.77;;;4.00;99.90;;;;;;4998022;28;88871;-76
2022/01/10 09:37:08;;;;;;;34.75;18.98;;;4.00;99.90;;;;;;4995880;28;89254;-77
2022/01/10 09:39:34;;;;;;;37.00;19.83;;;3.80;99.90;;;;;;4997584;28;89340;-78
2022/01/10 09:41:59;;;;;;;32.25;19.75;;;3.80;99.90;;;;;;4996170;28;91392;-77
2022/01/10 09:44:26;;;;;;;33.53;19.70;;;3.80;99.90;;;;;;4997131;28;89493;-77
2022/01/10 09:46:53;;;;;;;42.45;21.02;;;3.80;99.90;;;;;;4996034;28;89231;-78
2022/01/10 09:49:19;;;;;;;36.15;20.77;;;3.90;99.90;;;;;;4997408;28;89302;-77
2022/01/10 09:51:45;;;;;;;35.78;20.60;;;3.90;99.90;;;;;;4997278;28;89237;-77
2022/01/10 09:54:11;;;;;;;34.35;21.27;;;4.00;99.90;;;;;;4997128;28;89337;-77
2022/01/10 09:56:37;;;;;;;34.38;19.27;;;4.10;99.90;;;;;;4997019;28;89163;-78
2022/01/10 09:59:04;;;;;;;31.58;18.83;;;4.00;99.90;;;;;;4997405;28;89862;-77
2022/01/10 10:01:30;;;;;;;34.38;19.85;;;4.00;99.90;;;;;;4996882;28;89223;-77
2022/01/10 10:03:59;;;;;;;39.33;19.92;;;4.00;99.90;;;;;;4996543;28;89838;-77
2022/01/10 10:06:26;;;;;;;39.28;19.88;;;4.00;99.90;;;;;;4996489;28;90863;-78
2022/01/10 10:08:52;;;;;;;34.92;18.98;;;3.90;99.90;;;;;;4997082;28;89342;-77
2022/01/10 10:11:17;;;;;;;35.10;20.10;;;4.00;99.90;;;;;;4998823;28;91325;-77
2022/01/10 10:13:54;;;;;;;36.65;19.45;;;4.10;99.90;;;;;;4999944;28;89425;-77
2022/01/10 10:16:20;;;;;;;36.88;18.80;;;4.10;99.90;;;;;;5000037;28;89284;-78
2022/01/10 10:18:47;;;;;;;36.50;18.63;;;4.00;99.90;;;;;;4999954;28;89599;-77
2022/01/10 10:21:15;;;;;;;37.20;18.23;;;3.90;99.90;;;;;;5000057;28;89835;-76
2022/01/10 10:23:46;;;;;;;32.25;17.48;;;3.80;99.90;;;;;;5000181;28;90241;-78
2022/01/10 10:26:16;;;;;;;30.67;17.92;;;3.80;99.90;;;;;;5000362;28;89165;-82
2022/01/10 10:28:45;;;;;;;36.20;18.05;;;3.80;99.90;;;;;;4991434;28;89574;-77
2022/01/10 10:31:11;;;;;;;29.63;16.77;;;4.00;99.90;;;;;;4978600;28;91471;-77
2022/01/10 10:33:47;;;;;;;31.15;18.33;;;4.00;99.90;;;;;;4979272;28;89959;-76
2022/01/10 10:36:13;;;;;;;29.83;16.88;;;4.00;99.90;;;;;;4982088;28;89691;-76
2022/01/10 10:38:38;;;;;;;29.83;16.35;;;4.00;99.90;;;;;;4999171;28;89690;-77
2022/01/10 10:41:05;;;;;;;26.85;16.33;;;4.00;99.90;;;;;;4997483;28;92965;-77
2022/01/10 10:43:35;;;;;;;29.98;17.73;;;4.00;99.90;;;;;;4999100;28;89732;-76
2022/01/10 10:46:11;;;;;;;34.88;17.88;;;4.10;99.90;;;;;;4998823;28;89431;-76
2022/01/10 10:48:37;;;;;;;34.28;17.85;;;4.10;99.90;;;;;;4999282;28;89890;-76
2022/01/10 10:51:03;;;;;;;36.35;19.08;;;4.10;99.90;;;;;;4998620;28;91799;-77
2022/01/10 10:53:29;;;;;;;37.45;20.13;;;4.10;99.90;;;;;;4997354;28;92498;-77
2022/01/10 10:55:58;;;;;;;31.58;18.55;;;4.20;99.90;;;;;;4998717;28;90304;-76
2022/01/10 10:58:26;;;;;;;32.85;18.35;;;4.40;99.90;;;;;;4997266;28;92515;-77
2022/01/10 11:00:53;;;;;;;33.05;19.88;;;4.60;99.90;;;;;;4998746;28;90111;-77
2022/01/10 11:03:18;;;;;;;32.95;19.23;;;4.60;99.90;;;;;;4997998;28;90223;-77
2022/01/10 11:05:45;;;;;;;37.92;19.75;;;4.80;99.90;;;;;;4998727;28;89239;-77
2022/01/10 11:08:11;;;;;;;35.25;19.10;;;5.20;99.90;;;;;;4999386;28;89613;-77
2022/01/10 11:10:38;;;;;;;37.08;20.73;;;5.40;99.90;;;;;;4999009;28;89987;-77
2022/01/10 11:13:04;;;;;;;37.55;19.55;;;5.50;99.90;;;;;;4998917;28;89811;-76
2022/01/10 11:15:31;;;;;;;33.80;19.00;;;5.60;99.90;;;;;;4993890;28;89726;-77
2022/01/10 11:18:02;;;;;;;31.50;18.90;;;5.80;99.90;;;;;;5012032;22;89465;-75
2022/01/10 11:20:29;;;;;;;32.85;18.02;;;5.90;99.90;;;;;;4997572;28;90243;-75
2022/01/10 11:22:57;;;;;;;33.03;17.20;;;5.80;99.90;;;;;;4996055;28;89949;-74
2022/01/10 11:25:29;;;;;;;32.13;18.50;;;5.70;99.90;;;;;;4994769;28;89293;-78
2022/01/10 11:28:06;;;;;;;32.65;18.55;;;5.60;99.90;;;;;;4998046;28;92753;-77
2022/01/10 11:30:39;;;;;;;30.00;18.10;;;5.60;99.90;;;;;;4999322;28;90473;-76
2022/01/10 11:33:16;;;;;;;33.47;17.02;;;5.60;99.90;;;;;;4998618;28;92006;-77
2022/01/10 11:35:56;;;;;;;29.48;17.08;;;5.70;99.90;;;;;;5003006;28;89215;-79
2022/01/10 11:38:22;;;;;;;28.27;17.13;;;5.90;99.90;;;;;;5005263;28;93380;-81
2022/01/10 11:40:51;;;;;;;28.85;16.88;;;6.00;99.90;;;;;;5003166;28;91797;-80
2022/01/10 11:43:51;;;;;;;30.33;17.25;;;5.80;99.90;;;;;;5003328;28;92277;-79
2022/01/10 11:46:26;;;;;;;28.75;16.80;;;5.50;99.90;;;;;;5001579;28;90363;-80
2022/01/10 11:49:02;;;;;;;29.63;16.08;;;5.20;99.90;;;;;;5003656;28;91732;-80
2022/01/10 11:51:35;;;;;;;29.13;16.20;;;4.90;99.90;;;;;;5003224;28;89324;-81
2022/01/10 11:54:12;;;;;;;30.38;15.90;;;4.70;99.90;;;;;;5001397;28;91348;-80
2022/01/10 11:56:40;;;;;;;28.90;15.88;;;4.70;99.90;;;;;;5002109;28;90429;-80
2022/01/10 11:59:18;;;;;;;33.33;16.92;;;4.60;99.90;;;;;;4994084;28;89847;-80
2022/01/10 12:01:48;;;;;;;33.10;16.38;;;4.50;99.90;;;;;;5004119;28;92250;-80
2022/01/10 12:04:13;;;;;;;27.05;15.30;;;4.60;99.90;;;;;;5004556;28;88786;-78
2022/01/10 12:06:39;;;;;;;27.42;14.15;;;4.60;99.90;;;;;;4990998;28;89223;-79
2022/01/10 12:09:06;;;;;;;24.40;14.15;;;4.50;99.90;;;;;;4985299;28;89258;-78
2022/01/10 12:11:32;;;;;;;30.00;15.88;;;4.60;99.90;;;;;;4983595;28;91624;-79
2022/01/10 12:14:00;;;;;;;29.63;17.00;;;4.70;99.90;;;;;;4985952;28;89711;-79
2022/01/10 12:16:26;;;;;;;28.35;16.00;;;4.70;99.90;;;;;;4986453;28;89187;-79
2022/01/10 12:18:53;;;;;;;27.63;14.90;;;4.80;99.90;;;;;;4982999;28;89235;-79
2022/01/10 12:21:19;;;;;;;30.50;15.55;;;4.80;99.90;;;;;;4990351;28;91567;-80
2022/01/10 12:23:45;;;;;;;29.08;14.50;;;4.70;99.90;;;;;;4993110;28;91459;-79
2022/01/10 12:26:12;;;;;;;27.92;14.55;;;4.70;99.90;;;;;;4993734;28;89283;-80
2022/01/10 12:28:37;;;;;;;29.67;15.00;;;4.60;99.90;;;;;;4987273;28;92571;-79
2022/01/10 12:31:06;;;;;;;26.52;14.40;;;4.60;99.90;;;;;;4986679;28;91753;-79
2022/01/10 12:33:33;;;;;;;24.60;12.88;;;4.60;99.90;;;;;;4985714;28;90353;-79
2022/01/10 12:36:02;;;;;;;21.85;13.48;;;4.50;99.90;;;;;;4984506;28;90305;-79
2022/01/10 12:38:28;;;;;;;32.10;13.82;;;4.50;99.90;;;;;;4984953;28;91798;-79
2022/01/10 12:40:54;;;;;;;27.13;13.82;;;4.40;99.90;;;;;;4989575;28;93061;-79
2022/01/10 12:43:20;;;;;;;30.33;14.90;;;4.40;99.90;;;;;;4991886;28;91899;-78
2022/01/10 12:45:46;;;;;;;27.15;15.13;;;4.40;99.90;;;;;;4988994;28;89391;-79
2022/01/10 12:48:13;;;;;;;33.97;15.63;;;4.40;99.90;;;;;;4989866;28;92753;-79
2022/01/10 12:50:40;;;;;;;36.50;17.65;;;4.30;99.90;;;;;;4991871;28;89304;-79
2022/01/10 12:53:06;;;;;;;41.95;20.52;;;4.30;99.90;;;;;;4990513;28;91753;-79
2022/01/10 12:55:32;;;;;;;38.92;20.02;;;4.20;99.90;;;;;;4985133;28;89429;-79
2022/01/10 12:57:58;;;;;;;41.08;19.92;;;4.10;99.90;;;;;;4976979;28;91739;-79
2022/01/10 13:00:24;;;;;;;40.78;21.05;;;4.20;99.90;;;;;;4987003;28;92346;-79
2022/01/10 13:02:49;;;;;;;42.63;20.00;;;4.20;99.90;;;;;;4996357;28;91470;-79
2022/01/10 13:05:20;;;;;;;39.85;20.48;;;4.20;99.90;;;;;;4994825;28;89418;-79
2022/01/10 13:07:48;;;;;;;40.85;20.80;;;4.20;99.90;;;;;;4994357;28;92368;-79
2022/01/10 13:10:21;;;;;;;44.85;20.95;;;4.20;99.90;;;;;;4996302;28;90520;-79
2022/01/10 13:12:54;;;;;;;41.63;21.52;;;4.20;99.90;;;;;;4994389;28;91661;-77
2022/01/10 13:15:20;;;;;;;45.90;22.58;;;4.20;99.90;;;;;;4994652;28;89356;-77
2022/01/10 13:17:55;;;;;;;44.80;20.92;;;4.30;99.90;;;;;;4954937;28;1120654;-77
2022/01/10 13:20:22;;;;;;;43.30;22.55;;;4.20;99.90;;;;;;4986475;28;89180;-77
2022/01/10 13:22:48;;;;;;;48.17;22.13;;;4.10;99.90;;;;;;4976770;28;90006;-77
2022/01/10 13:25:18;;;;;;;46.85;24.38;;;4.00;99.90;;;;;;4977286;28;90104;-77
2022/01/10 13:27:52;;;;;;;46.38;23.05;;;3.90;99.90;;;;;;4975803;28;91834;-77
2022/01/10 13:30:28;;;;;;;49.78;23.92;;;3.80;99.90;;;;;;4976179;28;93278;-77
2022/01/10 13:32:56;;;;;;;47.05;22.30;;;3.90;99.90;;;;;;4975764;28;93041;-77
2022/01/10 13:35:22;;;;;;;46.22;22.65;;;4.00;99.90;;;;;;4975808;28;89316;-77
2022/01/10 13:37:55;;;;;;;51.55;23.67;;;4.00;99.90;;;;;;4975913;28;91206;-78
2022/01/10 13:40:22;;;;;;;47.53;22.95;;;4.00;99.90;;;;;;4975865;28;92756;-78
2022/01/10 13:42:53;;;;;;;48.88;23.58;;;4.00;99.90;;;;;;4975993;28;91747;-78
2022/01/10 13:46:01;;;;;;;52.80;24.73;;;4.00;99.90;;;;;;4976301;28;89231;-78
2022/01/10 13:48:37;;;;;;;46.85;23.00;;;4.00;99.90;;;;;;4976663;28;90217;-77
2022/01/10 13:51:15;;;;;;;46.63;21.75;;;4.10;99.90;;;;;;4975000;28;92884;-78
2022/01/10 13:53:43;;;;;;;46.53;23.42;;;4.00;99.90;;;;;;4977402;28;90664;-78
2022/01/10 13:56:28;;;;;;;46.90;23.38;;;4.00;99.90;;;;;;4975501;28;89370;-78
2022/01/10 13:58:56;;;;;;;50.50;23.45;;;3.90;99.90;;;;;;4975500;28;92951;-78
2022/01/10 14:01:33;;;;;;;50.85;23.52;;;3.90;99.90;;;;;;4977249;28;90454;-78
2022/01/10 14:04:00;;;;;;;51.35;22.10;;;3.90;99.90;;;;;;4975495;28;92020;-78
2022/01/10 14:06:31;;;;;;;45.90;22.63;;;3.90;99.90;;;;;;4976993;28;91092;-78
2022/01/10 14:08:59;;;;;;;47.08;23.70;;;3.90;99.90;;;;;;4975513;28;92935;-78
2022/01/10 14:11:27;;;;;;;46.10;22.33;;;4.00;99.90;;;;;;4975390;28;91977;-78
2022/01/10 14:13:57;;;;;;;46.83;22.48;;;4.30;99.90;;;;;;4991354;28;91163;-78
2022/01/10 14:16:33;;;;;;;44.08;22.75;;;4.70;99.90;;;;;;4996563;28;90140;-79
2022/01/10 14:18:58;;;;;;;43.28;21.20;;;4.90;99.90;;;;;;4994538;28;92898;-78
2022/01/10 14:21:24;;;;;;;45.88;21.52;;;4.90;99.90;;;;;;4996438;28;89420;-79
2022/01/10 14:23:50;;;;;;;39.53;20.27;;;4.90;99.90;;;;;;4994881;28;92665;-79
2022/01/10 14:26:15;;;;;;;40.95;20.98;;;4.90;99.90;;;;;;4995220;28;89246;-79
2022/01/10 14:28:43;;;;;;;43.83;22.00;;;4.70;99.90;;;;;;4996434;28;89313;-79
2022/01/10 14:31:09;;;;;;;46.30;22.25;;;4.60;99.90;;;;;;4995034;28;92861;-78
2022/01/10 14:33:35;;;;;;;41.40;21.80;;;4.40;99.90;;;;;;4996170;28;93081;-79
2022/01/10 14:36:01;;;;;;;43.38;21.92;;;4.30;99.90;;;;;;4996331;28;89564;-79
2022/01/10 14:38:28;;;;;;;42.88;21.95;;;4.10;99.90;;;;;;4996310;28;89444;-79
2022/01/10 14:40:55;;;;;;;42.65;22.35;;;4.00;99.90;;;;;;4994553;28;92979;-78
2022/01/10 14:43:20;;;;;;;46.47;21.42;;;4.00;99.90;;;;;;4994834;28;93644;-78
2022/01/10 14:45:46;;;;;;;45.55;23.15;;;4.00;99.90;;;;;;4996731;28;89464;-78
2022/01/10 14:48:12;;;;;;;44.53;23.60;;;4.00;99.90;;;;;;4995864;28;91045;-78
2022/01/10 14:50:38;;;;;;;45.50;22.30;;;4.10;99.90;;;;;;4995084;28;91755;-78
2022/01/10 14:53:06;;;;;;;52.15;23.13;;;4.10;99.90;;;;;;4996258;28;89251;-78
2022/01/10 14:55:33;;;;;;;49.40;22.33;;;4.20;99.90;;;;;;4997314;28;89183;-78
2022/01/10 14:57:59;;;;;;;43.72;23.05;;;4.30;99.90;;;;;;4998427;28;92634;-78
2022/01/10 15:00:24;;;;;;;47.15;23.52;;;4.40;99.90;;;;;;4992724;28;93022;-78
2022/01/10 15:02:50;;;;;;;47.25;23.02;;;4.40;99.90;;;;;;4988716;28;93118;-78
2022/01/10 15:05:15;;;;;;;45.13;22.75;;;4.40;99.90;;;;;;4989066;28;90582;-78
2022/01/10 15:07:41;;;;;;;45.45;22.58;;;4.30;99.90;;;;;;4997981;28;91691;-78
2022/01/10 15:10:08;;;;;;;42.60;22.83;;;4.30;99.90;;;;;;4998728;28;91741;-78
2022/01/10 15:12:34;;;;;;;48.85;23.65;;;4.20;99.90;;;;;;4999513;28;90085;-79
2022/01/10 15:15:02;;;;;;;47.17;23.65;;;4.00;99.90;;;;;;4999983;28;89282;-79
2022/01/10 15:17:32;;;;;;;45.47;22.77;;;4.00;99.90;;;;;;4998339;28;91067;-77
2022/01/10 15:19:59;;;;;;;45.55;22.58;;;3.80;99.90;;;;;;4980896;28;91617;-79
2022/01/10 15:22:25;;;;;;;45.88;21.17;;;3.70;99.90;;;;;;4980788;28;92636;-75
2022/01/10 15:24:51;;;;;;;45.97;23.52;;;3.60;99.90;;;;;;4981138;28;89190;-83
2022/01/10 15:27:17;;;;;;;46.05;22.95;;;3.50;99.90;;;;;;4979569;28;91728;-82
2022/01/10 15:29:43;;;;;;;42.63;21.63;;;3.40;99.90;;;;;;4979749;28;90374;-79
2022/01/10 15:32:09;;;;;;;52.47;25.35;;;3.20;99.90;;;;;;4978774;28;92548;-78
2022/01/10 15:34:35;;;;;;;47.00;23.55;;;3.00;99.90;;;;;;4978748;28;89264;-79
2022/01/10 15:37:01;;;;;;;46.75;22.95;;;2.90;99.90;;;;;;4979640;28;92571;-80
2022/01/10 15:39:29;;;;;;;45.83;23.50;;;2.70;99.90;;;;;;4979443;28;93876;-78
2022/01/10 15:41:55;;;;;;;49.17;24.02;;;2.50;99.90;;;;;;4980233;28;89412;-79
2022/01/10 15:44:21;;;;;;;45.22;23.48;;;2.40;99.90;;;;;;4978267;28;89602;-78
2022/01/10 15:46:46;;;;;;;49.17;23.08;;;2.20;99.90;;;;;;4981628;28;90258;-81
2022/01/10 15:49:13;;;;;;;46.03;24.48;;;2.00;99.90;;;;;;4981470;28;89540;-76
2022/01/10 15:51:39;;;;;;;56.42;25.92;;;1.80;99.90;;;;;;4979505;28;89192;-77
2022/01/10 15:54:04;;;;;;;50.38;24.23;;;1.70;99.90;;;;;;4977906;28;90293;-83
2022/01/10 15:56:30;;;;;;;51.35;23.70;;;1.60;99.90;;;;;;4980211;28;89237;-78
2022/01/10 15:58:55;;;;;;;49.55;24.83;;;1.50;99.90;;;;;;4987329;28;89214;-77
2022/01/10 16:01:21;;;;;;;53.63;24.98;;;1.30;99.90;;;;;;4998985;28;89597;-77
2022/01/10 16:03:50;;;;;;;52.72;24.88;;;1.20;99.90;;;;;;4997593;28;89303;-77
2022/01/10 16:06:16;;;;;;;53.78;23.40;;;1.10;99.90;;;;;;4998946;28;89381;-77
2022/01/10 16:08:42;;;;;;;55.20;23.92;;;1.00;99.90;;;;;;4994133;28;93203;-77
2022/01/10 16:11:08;;;;;;;46.67;23.00;;;1.00;99.90;;;;;;4989045;28;88975;-77
2022/01/10 16:13:34;;;;;;;54.60;22.55;;;0.90;99.90;;;;;;4977449;28;89364;-77
2022/01/10 16:16:00;;;;;;;48.90;22.65;;;0.80;99.90;;;;;;4996568;28;91519;-77
2022/01/10 16:18:26;;;;;;;56.03;23.92;;;0.80;99.90;;;;;;4978904;28;90383;-77
2022/01/10 16:20:52;;;;;;;47.72;23.90;;;0.80;99.90;;;;;;4989458;28;93724;-77
2022/01/10 16:23:18;;;;;;;56.17;24.45;;;0.90;99.90;;;;;;4994426;28;89304;-77
2022/01/10 16:25:44;;;;;;;57.20;25.33;;;1.00;99.90;;;;;;4995752;28;92875;-77
2022/01/10 16:28:10;;;;;;;60.72;26.10;;;1.10;99.90;;;;;;4986321;28;92120;-77
2022/01/10 16:30:36;;;;;;;62.28;27.63;;;1.10;99.90;;;;;;4988091;28;92825;-77
2022/01/10 16:33:02;;;;;;;63.40;26.67;;;1.20;99.90;;;;;;4984777;28;89380;-77
2022/01/10 16:35:28;;;;;;;61.28;27.27;;;1.40;99.90;;;;;;4981913;28;88985;-79
2022/01/10 16:37:53;;;;;;;62.92;26.98;;;1.40;99.90;;;;;;4977548;28;92021;-76
2022/01/10 16:40:19;;;;;;;61.75;27.92;;;1.50;99.90;;;;;;4994191;28;92976;-76
2022/01/10 16:42:45;;;;;;;60.05;25.95;;;1.60;99.90;;;;;;4999986;28;90291;-77
2022/01/10 16:45:11;;;;;;;64.53;27.48;;;1.70;99.90;;;;;;5000886;28;91291;-79
2022/01/10 16:47:37;;;;;;;58.92;25.98;;;1.80;99.90;;;;;;5001730;28;91815;-79
2022/01/10 16:50:04;;;;;;;71.53;32.70;;;1.90;99.90;;;;;;5000874;28;89462;-79
2022/01/10 16:52:30;;;;;;;85.05;35.53;;;1.90;99.90;;;;;;4983698;28;89412;-79
2022/01/10 16:54:56;;;;;;;85.93;38.55;;;2.00;99.90;;;;;;4994980;28;92745;-83
2022/01/10 16:57:22;;;;;;;82.75;37.97;;;2.00;99.90;;;;;;4989972;28;93508;-79
2022/01/10 16:59:47;;;;;;;81.93;37.25;;;2.00;99.90;;;;;;4988246;28;89164;-78
2022/01/10 17:02:13;;;;;;;75.57;35.35;;;2.00;99.90;;;;;;4990476;28;89907;-81
2022/01/10 17:04:40;;;;;;;72.43;35.28;;;2.00;99.90;;;;;;4991870;28;90358;-81
2022/01/10 17:07:06;;;;;;;74.40;33.80;;;2.10;99.90;;;;;;4990182;28;90977;-80
2022/01/10 17:09:32;;;;;;;69.38;31.65;;;2.10;99.90;;;;;;4985904;28;93855;-79
2022/01/10 17:11:59;;;;;;;61.55;31.58;;;2.10;99.90;;;;;;4983617;28;89826;-79
2022/01/10 17:14:25;;;;;;;64.55;31.65;;;2.10;99.90;;;;;;4976963;28;91990;-77
2022/01/10 17:16:51;;;;;;;61.03;30.50;;;2.10;99.90;;;;;;4990372;28;91378;-76
2022/01/10 17:19:17;;;;;;;66.45;31.15;;;2.10;99.90;;;;;;4998178;28;90166;-78
2022/01/10 17:21:44;;;;;;;60.40;29.42;;;2.10;99.90;;;;;;4996851;28;89563;-76
2022/01/10 17:24:10;;;;;;;65.72;29.00;;;2.10;99.90;;;;;;4998475;28;89402;-75
2022/01/10 17:26:36;;;;;;;64.97;29.80;;;2.10;99.90;;;;;;4995405;28;90213;-74
2022/01/10 17:29:02;;;;;;;61.35;29.10;;;2.20;99.90;;;;;;4985277;28;89848;-75
2022/01/10 17:31:27;;;;;;;58.60;27.50;;;2.20;99.90;;;;;;4995128;28;90198;-75
2022/01/10 17:33:53;;;;;;;62.70;27.92;;;2.20;99.90;;;;;;4977161;28;90441;-75
2022/01/10 17:36:18;;;;;;;60.35;27.33;;;2.20;99.90;;;;;;4977741;28;90152;-79